createdAt,value
2022-12-19T00:01:18.773Z,101816.00
2022-12-19T00:03:50.320Z,101807.94
2022-12-19T00:06:18.069Z,101802.56
2022-12-19T00:08:47.184Z,101786.44
2022-12-19T00:11:14.510Z,101790.28
2022-12-19T00:13:41.693Z,101790.81
2022-12-19T00:16:15.560Z,101795.72
2022-12-19T00:18:46.653Z,101783.97
2022-12-19T00:21:16.470Z,101791.09
2022-12-19T00:23:43.359Z,101787.09
2022-12-19T00:26:16.106Z,101790.19
2022-12-19T00:28:44.913Z,101789.66
2022-12-19T00:31:15.916Z,101770.06
2022-12-19T00:33:43.418Z,101772.41
2022-12-19T00:36:14.556Z,101779.97
2022-12-19T00:38:43.669Z,101765.91
2022-12-19T00:41:13.538Z,101755.06
2022-12-19T00:43:40.801Z,101749.38
2022-12-19T00:46:09.872Z,101749.59
2022-12-19T00:48:36.881Z,101745.53
2022-12-19T00:51:15.840Z,101744.28
2022-12-19T00:53:43.085Z,101748.66
2022-12-19T00:56:15.479Z,101747.59
2022-12-19T00:58:46.890Z,101732.84
2022-12-19T01:01:15.976Z,101733.19
2022-12-19T01:03:58.122Z,101704.72
2022-12-19T01:06:29.724Z,101721.91
2022-12-19T01:08:56.745Z,101726.50
2022-12-19T01:11:43.561Z,101716.91
2022-12-19T01:14:14.025Z,101719.13
2022-12-19T01:16:44.231Z,101713.94
2022-12-19T01:19:11.257Z,101715.78
2022-12-19T01:21:37.808Z,101697.13
2022-12-19T01:24:05.725Z,101705.50
2022-12-19T01:26:32.282Z,101693.69
2022-12-19T01:28:58.798Z,101691.88
2022-12-19T01:31:27.298Z,101687.56
2022-12-19T01:33:55.345Z,101695.25
2022-12-19T01:36:23.008Z,101696.63
2022-12-19T01:38:49.478Z,101701.72
2022-12-19T01:41:16.160Z,101708.75
2022-12-19T01:44:00.630Z,101702.31
2022-12-19T01:46:47.310Z,101698.16
2022-12-19T01:49:22.979Z,101698.66
2022-12-19T01:51:53.643Z,101697.66
2022-12-19T01:54:25.396Z,101690.19
2022-12-19T01:56:55.914Z,101692.94
2022-12-19T01:59:45.380Z,101696.09
2022-12-19T02:02:52.378Z,101687.41
2022-12-19T02:05:19.082Z,101685.22
2022-12-19T02:07:46.569Z,101675.63
2022-12-19T02:10:13.044Z,101678.63
2022-12-19T02:12:43.612Z,101669.56
2022-12-19T02:15:14.375Z,101661.63
2022-12-19T02:17:54.742Z,101668.25
2022-12-19T02:20:39.534Z,101658.31
2022-12-19T02:23:27.729Z,101658.00
2022-12-19T02:26:13.086Z,101656.31
2022-12-19T02:28:58.511Z,101654.78
2022-12-19T02:31:34.943Z,101646.56
2022-12-19T02:34:44.275Z,101648.59
2022-12-19T02:37:24.072Z,101646.91
2022-12-19T02:39:59.616Z,101647.94
2022-12-19T02:42:35.268Z,101633.81
2022-12-19T02:45:06.711Z,101628.91
2022-12-19T02:47:34.173Z,101616.66
2022-12-19T02:50:02.927Z,101619.34
2022-12-19T02:52:29.812Z,101610.25
2022-12-19T02:55:01.385Z,101612.44
2022-12-19T02:57:38.296Z,101608.25
2022-12-19T03:00:07.322Z,101608.25
2022-12-19T03:03:09.214Z,101605.75
2022-12-19T03:05:45.070Z,101604.41
2022-12-19T03:08:30.332Z,101604.91
2022-12-19T03:11:02.166Z,101595.88
2022-12-19T03:13:59.267Z,101596.03
2022-12-19T03:16:26.522Z,101595.88
2022-12-19T03:18:57.692Z,101604.56
2022-12-19T03:21:32.449Z,101605.81
2022-12-19T03:23:59.232Z,101584.91
2022-12-19T03:26:31.125Z,101587.13
2022-12-19T03:29:01.834Z,101594.88
2022-12-19T03:31:32.210Z,101593.88
2022-12-19T03:34:02.380Z,101593.72
2022-12-19T03:36:39.244Z,101588.50
2022-12-19T03:39:08.998Z,101586.78
2022-12-19T03:41:56.972Z,101569.97
2022-12-19T03:44:26.803Z,101578.38
2022-12-19T03:47:26.572Z,101575.53
2022-12-19T03:49:53.353Z,101575.38
2022-12-19T03:52:32.922Z,101571.66
2022-12-19T03:55:16.441Z,101574.69
2022-12-19T03:57:47.832Z,101566.94
2022-12-19T04:00:17.416Z,101563.53
2022-12-19T04:02:51.195Z,101564.25
2022-12-19T04:05:23.305Z,101568.25
2022-12-19T04:07:53.671Z,101553.75
2022-12-19T04:10:26.332Z,101563.19
2022-12-19T04:13:04.482Z,101566.72
2022-12-19T04:15:43.999Z,101558.63
2022-12-19T04:18:13.549Z,101559.25
2022-12-19T04:20:45.533Z,101556.03
2022-12-19T04:23:21.406Z,101552.63
2022-12-19T04:25:51.368Z,101539.81
2022-12-19T04:28:27.875Z,101541.94
2022-12-19T04:30:54.504Z,101531.78
2022-12-19T04:33:21.042Z,101532.53
2022-12-19T04:35:47.665Z,101526.53
2022-12-19T04:38:14.346Z,101541.72
2022-12-19T04:40:41.697Z,101526.06
2022-12-19T04:43:08.828Z,101528.81
2022-12-19T04:45:35.351Z,101524.84
2022-12-19T04:48:03.214Z,101524.06
2022-12-19T04:50:29.880Z,101528.69
2022-12-19T04:52:57.941Z,101524.84
2022-12-19T04:55:24.675Z,101528.47
2022-12-19T04:57:51.158Z,101534.34
2022-12-19T05:00:17.733Z,101536.56
2022-12-19T05:02:44.520Z,101531.34
2022-12-19T05:05:11.225Z,101534.34
2022-12-19T05:07:37.697Z,101531.94
2022-12-19T05:10:04.888Z,101536.09
2022-12-19T05:12:31.442Z,101527.13
2022-12-19T05:14:57.965Z,101522.31
2022-12-19T05:17:24.558Z,101530.16
2022-12-19T05:19:51.068Z,101519.06
2022-12-19T05:22:17.593Z,101523.56
2022-12-19T05:24:44.685Z,101513.16
2022-12-19T05:27:11.230Z,101520.63
2022-12-19T05:29:37.716Z,101518.22
2022-12-19T05:32:04.252Z,101507.66
2022-12-19T05:34:30.885Z,101503.34
2022-12-19T05:36:57.492Z,101515.25
2022-12-19T05:39:24.758Z,101511.63
2022-12-19T05:41:51.330Z,101512.63
2022-12-19T05:44:17.960Z,101505.28
2022-12-19T05:46:45.053Z,101514.41
2022-12-19T05:49:11.628Z,101504.53
2022-12-19T05:51:38.279Z,101504.06
2022-12-19T05:54:05.028Z,101501.72
2022-12-19T05:56:31.541Z,101511.63
2022-12-19T05:58:58.118Z,101509.38
2022-12-19T06:01:26.995Z,101510.97
2022-12-19T06:03:54.779Z,101512.47
2022-12-19T06:06:23.731Z,101516.41
2022-12-19T06:08:55.333Z,101524.97
2022-12-19T06:11:22.531Z,101512.19
2022-12-19T06:13:49.224Z,101507.78
2022-12-19T06:16:18.450Z,101510.41
2022-12-19T06:18:46.140Z,101511.25
2022-12-19T06:21:15.455Z,101511.41
2022-12-19T06:23:42.803Z,101508.09
2022-12-19T06:26:17.155Z,101507.88
2022-12-19T06:28:46.160Z,101510.22
2022-12-19T06:31:13.721Z,101518.72
2022-12-19T06:33:40.717Z,101512.00
2022-12-19T06:36:11.823Z,101520.00
2022-12-19T06:38:38.548Z,101514.03
2022-12-19T06:41:24.045Z,101516.72
2022-12-19T06:43:53.557Z,101522.50
2022-12-19T06:46:20.409Z,101526.47
2022-12-19T06:48:47.063Z,101522.75
2022-12-19T06:51:13.632Z,101526.25
2022-12-19T06:53:40.321Z,101506.91
2022-12-19T06:56:07.363Z,101523.81
2022-12-19T06:58:34.808Z,101525.28
2022-12-19T07:01:01.757Z,101510.28
2022-12-19T07:03:38.806Z,101528.91
2022-12-19T07:06:05.877Z,101524.84
2022-12-19T07:08:32.399Z,101499.81
2022-12-19T07:10:59.583Z,101530.09
2022-12-19T07:13:27.403Z,101524.34
2022-12-19T07:15:57.040Z,101524.28
2022-12-19T07:18:26.953Z,101510.22
2022-12-19T07:20:53.446Z,101502.03
2022-12-19T07:23:21.965Z,101529.25
2022-12-19T07:25:48.521Z,101515.63
2022-12-19T07:28:16.157Z,101525.38
2022-12-19T07:30:42.680Z,101523.19
2022-12-19T07:33:11.869Z,101510.66
2022-12-19T07:35:39.619Z,101517.72
2022-12-19T07:38:06.992Z,101525.38
2022-12-19T07:40:34.245Z,101537.97
2022-12-19T07:43:02.366Z,101533.75
2022-12-19T07:45:29.908Z,101537.66
2022-12-19T07:47:59.568Z,101534.41
2022-12-19T07:50:26.033Z,101542.28
2022-12-19T07:52:52.558Z,101525.41
2022-12-19T07:55:19.060Z,101531.44
2022-12-19T07:57:45.607Z,101541.38
2022-12-19T08:00:12.779Z,101544.72
2022-12-19T08:02:40.035Z,101547.00
2022-12-19T08:05:06.952Z,101552.88
2022-12-19T08:07:33.528Z,101560.75
2022-12-19T08:10:00.577Z,101560.22
2022-12-19T08:12:27.171Z,101550.28
2022-12-19T08:14:57.126Z,101555.06
2022-12-19T08:17:24.032Z,101558.25
2022-12-19T08:19:50.648Z,101566.84
2022-12-19T08:22:17.186Z,101567.19
2022-12-19T08:24:43.731Z,101547.72
2022-12-19T08:27:10.307Z,101553.91
2022-12-19T08:29:36.856Z,101553.66
2022-12-19T08:32:03.512Z,101562.94
2022-12-19T08:34:30.036Z,101561.41
2022-12-19T08:36:56.829Z,101566.31
2022-12-19T08:39:23.384Z,101551.22
2022-12-19T08:41:49.913Z,101561.75
2022-12-19T08:44:16.481Z,101562.63
2022-12-19T08:46:49.459Z,101569.28
2022-12-19T08:49:16.574Z,101574.44
2022-12-19T08:51:43.062Z,101570.03
2022-12-19T08:54:11.664Z,101570.34
2022-12-19T08:56:44.017Z,101574.88
2022-12-19T08:59:13.408Z,101578.63
2022-12-19T09:01:42.577Z,101560.47
2022-12-19T09:06:00.268Z,101558.19
2022-12-19T09:06:56.563Z,101572.69
2022-12-19T09:09:23.104Z,101584.56
2022-12-19T09:11:49.598Z,101573.47
2022-12-19T09:14:21.026Z,101579.28
2022-12-19T09:16:48.182Z,101581.84
2022-12-19T09:19:16.433Z,101585.66
2022-12-19T09:21:43.251Z,101584.09
2022-12-19T09:24:10.607Z,101585.16
2022-12-19T09:26:39.243Z,101584.38
2022-12-19T09:29:11.000Z,101574.31
2022-12-19T09:31:46.873Z,101573.25
2022-12-19T09:34:13.537Z,101576.72
2022-12-19T09:36:40.116Z,101577.56
2022-12-19T09:39:06.601Z,101581.34
2022-12-19T09:41:54.104Z,101574.31
2022-12-19T09:44:35.564Z,101578.53
2022-12-19T09:47:13.385Z,101567.22
2022-12-19T09:49:45.125Z,101581.47
2022-12-19T09:52:35.761Z,101572.72
2022-12-19T09:55:11.342Z,101578.75
2022-12-19T09:57:52.588Z,101575.66
2022-12-19T10:00:22.093Z,101576.03
2022-12-19T10:03:04.947Z,101597.59
2022-12-19T10:06:45.693Z,101591.28
2022-12-19T10:08:35.964Z,101592.19
2022-12-19T10:12:39.327Z,101585.16
2022-12-19T10:14:03.341Z,101580.13
2022-12-19T10:17:22.560Z,101586.84
2022-12-19T10:19:58.029Z,101593.84
2022-12-19T10:22:29.529Z,101596.75
2022-12-19T10:25:25.966Z,101581.50
2022-12-19T10:28:29.568Z,101587.13
2022-12-19T10:31:17.016Z,101589.41
2022-12-19T10:33:56.291Z,101584.81
2022-12-19T10:36:41.884Z,101597.38
2022-12-19T10:39:31.528Z,101597.22
2022-12-19T10:42:09.266Z,101595.56
2022-12-19T10:44:38.491Z,101607.94
2022-12-19T10:47:05.185Z,101588.50
2022-12-19T10:49:31.852Z,101590.81
2022-12-19T10:51:59.986Z,101591.66
2022-12-19T10:54:37.598Z,101587.00
2022-12-19T10:57:22.470Z,101598.13
2022-12-19T10:59:58.141Z,101586.00
2022-12-19T11:02:32.686Z,101581.22
2022-12-19T11:04:59.455Z,101585.38
2022-12-19T11:07:26.038Z,101578.66
2022-12-19T11:09:58.378Z,101579.97
2022-12-19T11:18:28.831Z,101565.31
2022-12-19T11:21:16.993Z,101567.22
2022-12-19T11:29:17.026Z,101570.34
2022-12-19T11:29:54.275Z,101555.72
2022-12-19T11:30:45.502Z,101559.88
2022-12-19T11:30:59.411Z,101550.03
2022-12-19T11:33:18.956Z,101560.31
2022-12-19T11:35:54.375Z,101546.09
2022-12-19T11:38:48.465Z,101546.31
2022-12-19T11:41:20.113Z,101553.25
2022-12-19T11:43:55.921Z,101541.94
2022-12-19T11:46:45.630Z,101540.69
2022-12-19T11:49:19.684Z,101543.59
2022-12-19T11:51:55.893Z,101554.22
2022-12-19T11:54:28.745Z,101547.56
2022-12-19T12:31:53.470Z,101521.47
2022-12-19T12:32:05.780Z,101517.72
2022-12-19T12:35:13.666Z,101511.06
2022-12-19T12:35:52.363Z,101512.31
2022-12-19T12:38:54.163Z,101502.28
2022-12-19T12:42:04.106Z,101508.53
2022-12-19T12:44:45.218Z,101502.47
2022-12-19T12:47:27.771Z,101505.19
2022-12-19T12:50:04.053Z,101503.31
2022-12-19T12:52:38.145Z,101493.91
2022-12-19T12:55:27.768Z,101490.13
2022-12-19T12:57:54.342Z,101475.06
2022-12-19T13:00:32.252Z,101490.13
2022-12-19T13:03:07.067Z,101488.06
2022-12-19T13:05:54.119Z,101475.06
2022-12-19T13:08:45.758Z,101475.50
2022-12-19T13:11:52.709Z,101462.53
2022-12-19T13:14:34.228Z,101447.22
2022-12-19T13:17:02.490Z,101444.72
2022-12-19T13:19:31.773Z,101435.31
2022-12-19T13:22:04.172Z,101442.84
2022-12-19T13:24:45.828Z,101434.03
2022-12-19T13:27:33.684Z,101433.81
2022-12-19T13:30:00.212Z,101434.47
2022-12-19T13:32:30.408Z,101432.16
2022-12-19T13:35:20.576Z,101420.84
2022-12-19T13:39:57.594Z,101422.50
2022-12-19T13:40:43.543Z,101428.78
2022-12-19T13:43:38.346Z,101422.28
2022-12-19T13:46:18.438Z,101408.88
2022-12-19T13:48:48.162Z,101406.38
2022-12-19T13:51:15.277Z,101410.78
2022-12-19T13:53:43.605Z,101411.41
2022-12-19T13:56:17.694Z,101422.09
2022-12-19T13:58:53.833Z,101417.06
2022-12-19T14:01:37.388Z,101420.63
2022-12-19T14:04:10.693Z,101406.16
2022-12-19T14:06:43.795Z,101396.56
2022-12-19T14:11:28.779Z,101387.13
2022-12-19T14:13:46.155Z,101398.84
2022-12-19T14:15:41.185Z,101382.94
2022-12-19T14:18:45.125Z,101379.16
2022-12-19T14:22:05.119Z,101377.50
2022-12-19T14:24:21.163Z,101390.88
2022-12-19T14:28:17.252Z,101387.53
2022-12-19T14:30:29.330Z,101387.53
2022-12-19T14:33:46.086Z,101377.25
2022-12-19T14:36:09.797Z,101377.06
2022-12-19T14:39:23.169Z,101377.50
2022-12-19T14:41:46.946Z,101382.72
2022-12-19T14:52:11.542Z,101371.22
2022-12-19T14:53:10.923Z,101379.16
2022-12-19T14:54:06.296Z,101372.06
2022-12-19T14:54:41.628Z,101369.53
2022-12-19T14:56:16.098Z,101387.53
2022-12-19T14:58:53.566Z,101386.09
2022-12-19T15:01:26.010Z,101387.13
2022-12-19T15:04:53.080Z,101399.25
2022-12-19T15:07:07.428Z,101398.22
2022-12-19T15:11:07.502Z,101388.38
2022-12-19T15:14:48.490Z,101385.59
2022-12-19T15:15:48.089Z,101390.63
2022-12-19T15:18:37.831Z,101400.88
2022-12-19T15:21:08.105Z,101403.00
2022-12-19T15:23:34.724Z,101396.91
2022-12-19T15:26:05.643Z,101403.59
2022-12-19T15:28:43.692Z,101414.25
2022-12-19T15:31:20.277Z,101414.25
2022-12-19T15:34:23.210Z,101425.78
2022-12-19T15:36:33.465Z,101427.19
2022-12-19T15:39:00.075Z,101421.75
2022-12-19T15:41:27.274Z,101415.69
2022-12-19T15:44:03.659Z,101411.69
2022-12-19T15:46:31.735Z,101407.09
2022-12-19T15:48:58.303Z,101407.09
2022-12-19T15:51:24.792Z,101402.66
2022-12-19T15:53:51.290Z,101410.00
2022-12-19T15:56:39.128Z,101406.66
2022-12-19T15:59:16.940Z,101412.06
2022-12-19T16:01:43.565Z,101414.38
2022-12-19T16:04:13.153Z,101422.56
2022-12-19T16:06:39.868Z,101403.72
2022-12-19T16:09:23.385Z,101400.38
2022-12-19T16:11:52.529Z,101411.69
2022-12-19T16:14:20.495Z,101412.53
2022-12-19T16:16:55.275Z,101403.72
2022-12-19T16:19:24.777Z,101409.34
2022-12-19T16:21:52.111Z,101412.09
2022-12-19T16:24:19.233Z,101417.78
2022-12-19T16:26:51.846Z,101416.31
2022-12-19T16:29:22.557Z,101417.09
2022-12-19T16:31:49.571Z,101424.00
2022-12-19T16:34:19.314Z,101418.16
2022-12-19T16:36:46.274Z,101416.88
2022-12-19T16:39:15.834Z,101411.88
2022-12-19T16:41:43.848Z,101413.97
2022-12-19T16:44:19.313Z,101407.06
2022-12-19T16:46:51.096Z,101409.38
2022-12-19T16:49:20.515Z,101407.47
2022-12-19T16:51:47.707Z,101398.72
2022-12-19T16:54:15.817Z,101388.81
2022-12-19T16:56:42.272Z,101402.69
2022-12-19T16:59:40.253Z,101404.13
2022-12-19T17:02:37.403Z,101406.22
2022-12-19T17:05:04.533Z,101390.75
2022-12-19T17:07:31.575Z,101392.41
2022-12-19T17:09:58.109Z,101393.00
2022-12-19T17:12:27.065Z,101403.72
2022-12-19T17:14:54.040Z,101407.91
2022-12-19T17:17:20.571Z,101412.50
2022-12-19T17:19:47.061Z,101416.72
2022-12-19T17:22:18.867Z,101420.03
2022-12-19T17:24:46.462Z,101409.13
2022-12-19T17:27:13.957Z,101409.53
2022-12-19T17:29:40.437Z,101400.97
2022-12-19T17:32:09.395Z,101390.28
2022-12-19T17:34:36.190Z,101401.59
2022-12-19T17:37:04.907Z,101412.69
2022-12-19T17:39:34.067Z,101420.88
2022-12-19T17:42:22.075Z,101411.44
2022-12-19T17:44:48.734Z,101399.47
2022-12-19T17:47:17.033Z,101394.03
2022-12-19T17:49:43.666Z,101384.41
2022-12-19T17:52:15.994Z,101391.53
2022-12-19T17:54:42.662Z,101382.91
2022-12-19T17:57:14.537Z,101387.50
2022-12-19T17:59:41.968Z,101387.69
2022-12-19T18:02:27.594Z,101392.78
2022-12-19T18:04:54.406Z,101388.81
2022-12-19T18:07:20.986Z,101384.84
2022-12-19T18:09:47.589Z,101383.78
2022-12-19T18:12:14.223Z,101376.03
2022-12-19T18:14:40.837Z,101377.28
2022-12-19T18:17:10.241Z,101398.88
2022-12-19T18:19:36.765Z,101410.59
2022-12-19T18:22:03.715Z,101413.09
2022-12-19T18:24:30.362Z,101405.16
2022-12-19T18:26:56.905Z,101405.38
2022-12-19T18:29:23.894Z,101416.69
2022-12-19T18:31:51.447Z,101423.78
2022-12-19T18:34:20.554Z,101416.22
2022-12-19T18:36:47.084Z,101404.09
2022-12-19T18:39:19.529Z,101414.53
2022-12-19T18:41:46.076Z,101415.81
2022-12-19T18:44:12.652Z,101417.50
2022-12-19T18:46:39.305Z,101416.66
2022-12-19T18:49:06.598Z,101409.38
2022-12-19T18:51:33.220Z,101408.25
2022-12-19T18:54:00.107Z,101413.94
2022-12-19T18:56:26.623Z,101410.16
2022-12-19T18:58:53.188Z,101417.69
2022-12-19T19:01:21.781Z,101416.66
2022-12-19T19:03:59.207Z,101414.56
2022-12-19T19:06:29.168Z,101416.47
2022-12-19T19:08:57.024Z,101416.03
2022-12-19T19:11:50.002Z,101426.72
2022-12-19T19:14:17.802Z,101430.03
2022-12-19T19:16:44.730Z,101425.44
2022-12-19T19:19:15.481Z,101434.06
2022-12-19T19:21:42.661Z,101419.59
2022-12-19T19:24:14.133Z,101437.19
2022-12-19T19:26:40.899Z,101421.25
2022-12-19T19:29:07.424Z,101423.31
2022-12-19T19:31:38.399Z,101427.13
2022-12-19T19:34:11.996Z,101424.19
2022-12-19T19:36:42.327Z,101425.88
2022-12-19T19:39:08.825Z,101435.69
2022-12-19T19:41:35.304Z,101423.59
2022-12-19T19:44:01.825Z,101433.41
2022-12-19T19:46:28.811Z,101435.09
2022-12-19T19:48:55.513Z,101434.22
2022-12-19T19:51:22.103Z,101443.06
2022-12-19T19:53:48.786Z,101447.44
2022-12-19T19:56:15.347Z,101449.31
2022-12-19T19:58:42.014Z,101450.16
2022-12-19T20:01:12.994Z,101461.31
2022-12-19T20:03:41.998Z,101455.63
2022-12-19T20:06:10.207Z,101448.13
2022-12-19T20:08:40.096Z,101452.50
2022-12-19T20:11:07.324Z,101447.25
2022-12-19T20:13:34.208Z,101448.91
2022-12-19T20:16:06.312Z,101441.38
2022-12-19T20:18:33.359Z,101451.84
2022-12-19T20:20:59.872Z,101444.56
2022-12-19T20:23:26.428Z,101448.06
2022-12-19T20:25:53.198Z,101445.56
2022-12-19T20:28:19.744Z,101448.91
2022-12-19T20:30:47.240Z,101449.31
2022-12-19T20:33:14.018Z,101443.88
2022-12-19T20:35:40.669Z,101445.97
2022-12-19T20:38:07.206Z,101449.91
2022-12-19T20:40:33.693Z,101454.13
2022-12-19T20:43:00.211Z,101457.06
2022-12-19T20:45:26.737Z,101444.31
2022-12-19T20:47:53.369Z,101449.75
2022-12-19T20:50:19.887Z,101458.13
2022-12-19T20:52:46.429Z,101458.34
2022-12-19T20:55:12.985Z,101457.09
2022-12-19T20:57:39.596Z,101457.34
2022-12-19T21:00:07.594Z,101459.41
2022-12-19T21:02:59.955Z,101463.63
2022-12-19T21:05:20.653Z,101453.13
2022-12-19T21:07:47.433Z,101461.53
2022-12-19T21:10:13.972Z,101456.06
2022-12-19T21:12:47.154Z,101455.25
2022-12-19T21:15:14.387Z,101456.47
2022-12-19T21:17:40.941Z,101462.38
2022-12-19T21:20:08.210Z,101464.88
2022-12-19T21:22:34.776Z,101474.72
2022-12-19T21:25:01.443Z,101453.78
2022-12-19T21:27:28.016Z,101463.38
2022-12-19T21:29:54.592Z,101459.81
2022-12-19T21:32:21.466Z,101440.16
2022-12-19T21:34:48.202Z,101447.28
2022-12-19T21:37:14.771Z,101456.06
2022-12-19T21:39:41.275Z,101448.91
2022-12-19T21:42:07.754Z,101456.06
2022-12-19T21:44:34.293Z,101453.28
2022-12-19T21:47:00.937Z,101442.66
2022-12-19T21:49:27.588Z,101444.50
2022-12-19T21:51:54.101Z,101451.00
2022-12-19T21:54:20.624Z,101444.50
2022-12-19T21:56:47.146Z,101450.16
2022-12-19T21:59:15.692Z,101441.78
2022-12-19T22:01:43.084Z,101438.44
2022-12-19T22:04:15.550Z,101426.88
2022-12-19T22:06:42.058Z,101440.50
2022-12-19T22:09:13.778Z,101447.44
2022-12-19T22:11:40.836Z,101441.97
2022-12-19T22:14:07.932Z,101442.81
2022-12-19T22:16:35.488Z,101437.78
2022-12-19T22:19:02.198Z,101444.91
2022-12-19T22:21:28.992Z,101431.91
2022-12-19T22:24:00.103Z,101434.00
2022-12-19T22:26:29.440Z,101411.38
2022-12-19T22:28:57.053Z,101415.31
2022-12-19T22:31:31.823Z,101410.72
2022-12-19T22:34:13.027Z,101397.94
2022-12-19T22:36:41.189Z,101399.22
2022-12-19T22:39:11.170Z,101398.38
2022-12-19T22:41:38.550Z,101391.63
2022-12-19T22:44:06.008Z,101384.69
2022-12-19T22:46:35.501Z,101381.75
2022-12-19T22:49:08.659Z,101377.63
2022-12-19T22:51:36.052Z,101393.31
2022-12-19T22:54:03.356Z,101391.00
2022-12-19T22:56:32.260Z,101402.47
2022-12-19T22:59:01.615Z,101401.84
2022-12-19T23:01:31.016Z,101395.16
2022-12-19T23:03:59.832Z,101394.31
2022-12-19T23:06:28.358Z,101407.94
2022-12-19T23:08:55.098Z,101407.88
2022-12-19T23:11:25.984Z,101404.75
2022-12-19T23:13:52.644Z,101403.22
2022-12-19T23:16:19.266Z,101404.66
2022-12-19T23:18:46.047Z,101412.41
2022-12-19T23:21:13.787Z,101403.78
2022-12-19T23:23:42.698Z,101407.97
2022-12-19T23:26:15.985Z,101402.13
2022-12-19T23:28:44.343Z,101396.66
2022-12-19T23:31:13.163Z,101400.44
2022-12-19T23:33:39.777Z,101397.28
2022-12-19T23:36:06.727Z,101384.88
2022-12-19T23:38:34.064Z,101385.16
2022-12-19T23:41:07.859Z,101388.94
2022-12-19T23:43:35.706Z,101371.47
2022-12-19T23:46:12.312Z,101382.16
2022-12-19T23:48:39.371Z,101366.06
2022-12-19T23:51:12.122Z,101366.06
2022-12-19T23:53:38.688Z,101358.09
2022-12-19T23:56:10.880Z,101356.16
2022-12-19T23:58:37.433Z,101357.03
